KMCE/MCE METAR and TAF weather

Enter ICAO airport designator
Station Type Date Time Source
KMCE METAR 2022/01/29 00:53 UTC NOAA

KMCE 290053Z AUTO 23003KT 8SM CLR 16/07 A3024 RMK AO2 SLP240 T01560067


Station Type Date Time Source
KMCE Decoded METAR 2022/01/29 00:53 UTC NOAA

MERCED MUNICIPAL AIRPORT, CA, United States (KMCE) 37-17N 120-30W 47M
Jan 28, 2022 - 07:53 PM EST / 2022.01.29 0053 UTC
Wind: from the SW (230 degrees) at 3 MPH (3 KT):0
Visibility: 8 mile(s):0
Sky conditions: clear
Temperature: 60.1 F (15.6 C)
Dew Point: 44.1 F (6.7 C)
Relative Humidity: 55%
Pressure (altimeter): 30.24 in. Hg (1024 hPa)
ob: KMCE 290053Z AUTO 23003KT 8SM CLR 16/07 A3024 RMK AO2 SLP240 T01560067
cycle: 1

Station Type Date Time Source
KMCE TAF 2022/01/28 18:22 UTC NOAA

TAF KMCE 281720Z 2818/2918 00000KT 4SM BR SCT250
FM281900 VRB03KT P6SM SCT250
FM290800 VRB03KT 4SM BR BKN200

Example: see airport list